sensor_id;sensor_type;location;lat;lon;timestamp;pressure;altitude;pressure_sealevel;temperature;humidity
58690;BME280;44470;53.206;-6.106;2023-05-29T00:00:52;102849.13;;;20.53;59.31
58690;BME280;44470;53.206;-6.106;2023-05-29T00:03:19;102850.94;;;20.54;59.33
58690;BME280;44470;53.206;-6.106;2023-05-29T00:05:44;102853.59;;;20.54;59.01
58690;BME280;44470;53.206;-6.106;2023-05-29T00:08:09;102858.06;;;20.53;58.93
58690;BME280;44470;53.206;-6.106;2023-05-29T00:10:35;102853.59;;;20.54;59.19
58690;BME280;44470;53.206;-6.106;2023-05-29T00:13:02;102857.16;;;20.53;59.30
58690;BME280;44470;53.206;-6.106;2023-05-29T00:15:27;102851.81;;;20.53;58.93
58690;BME280;44470;53.206;-6.106;2023-05-29T00:17:53;102858.94;;;20.54;59.38
58690;BME280;44470;53.206;-6.106;2023-05-29T00:20:18;102859.84;;;20.53;59.18
58690;BME280;44470;53.206;-6.106;2023-05-29T00:22:44;102857.16;;;20.53;58.91
58690;BME280;44470;53.206;-6.106;2023-05-29T00:25:10;102862.50;;;20.53;59.15
58690;BME280;44470;53.206;-6.106;2023-05-29T00:27:35;102862.50;;;20.53;58.91
58690;BME280;44470;53.206;-6.106;2023-05-29T00:30:01;102859.84;;;20.53;59.09
58690;BME280;44470;53.206;-6.106;2023-05-29T00:32:28;102855.38;;;20.52;58.87
58690;BME280;44470;53.206;-6.106;2023-05-29T00:34:54;102866.06;;;20.52;59.13
58690;BME280;44470;53.206;-6.106;2023-05-29T00:37:20;102860.72;;;20.52;58.81
58690;BME280;44470;53.206;-6.106;2023-05-29T00:39:47;102874.09;;;20.52;58.80
58690;BME280;44470;53.206;-6.106;2023-05-29T00:42:12;102868.75;;;20.52;58.87
58690;BME280;44470;53.206;-6.106;2023-05-29T00:44:37;102871.41;;;20.52;58.66
58690;BME280;44470;53.206;-6.106;2023-05-29T00:47:03;102869.66;;;20.52;58.66
58690;BME280;44470;53.206;-6.106;2023-05-29T00:49:28;102865.19;;;20.51;58.95
58690;BME280;44470;53.206;-6.106;2023-05-29T00:51:54;102864.28;;;20.51;58.72
58690;BME280;44470;53.206;-6.106;2023-05-29T00:54:26;102867.84;;;20.51;58.81
58690;BME280;44470;53.206;-6.106;2023-05-29T00:56:52;102863.38;;;20.52;58.84
58690;BME280;44470;53.206;-6.106;2023-05-29T00:59:17;102867.81;;;20.50;58.83
58690;BME280;44470;53.206;-6.106;2023-05-29T01:01:47;102866.94;;;20.51;58.58
58690;BME280;44470;53.206;-6.106;2023-05-29T01:04:13;102873.19;;;20.50;58.76
58690;BME280;44470;53.206;-6.106;2023-05-29T01:06:40;102871.41;;;20.50;58.43
58690;BME280;44470;53.206;-6.106;2023-05-29T01:09:06;102885.66;;;20.51;58.45
58690;BME280;44470;53.206;-6.106;2023-05-29T01:14:08;102876.75;;;20.50;58.35
58690;BME280;44470;53.206;-6.106;2023-05-29T01:16:36;102875.84;;;20.50;58.41
58690;BME280;44470;53.206;-6.106;2023-05-29T01:21:59;102870.50;;;20.50;58.54
58690;BME280;44470;53.206;-6.106;2023-05-29T01:27:25;102867.81;;;20.50;58.44
58690;BME280;44470;53.206;-6.106;2023-05-29T01:29:51;102870.50;;;20.50;58.22
58690;BME280;44470;53.206;-6.106;2023-05-29T01:32:18;102866.03;;;20.48;58.58
58690;BME280;44470;53.206;-6.106;2023-05-29T01:34:45;102871.38;;;20.48;58.21
58690;BME280;44470;53.206;-6.106;2023-05-29T01:37:10;102866.94;;;20.49;58.44
58690;BME280;44470;53.206;-6.106;2023-05-29T01:39:35;102875.84;;;20.50;58.37
58690;BME280;44470;53.206;-6.106;2023-05-29T01:42:01;102862.47;;;20.50;58.12
58690;BME280;44470;53.206;-6.106;2023-05-29T01:44:27;102869.63;;;20.51;58.19
58690;BME280;44470;53.206;-6.106;2023-05-29T01:46:53;102867.81;;;20.50;58.38
58690;BME280;44470;53.206;-6.106;2023-05-29T01:49:19;102865.16;;;20.48;58.23
58690;BME280;44470;53.206;-6.106;2023-05-29T01:51:45;102861.59;;;20.49;58.28
58690;BME280;44470;53.206;-6.106;2023-05-29T01:54:11;102871.38;;;20.48;58.17
58690;BME280;44470;53.206;-6.106;2023-05-29T01:56:37;102869.59;;;20.47;58.58
58690;BME280;44470;53.206;-6.106;2023-05-29T01:59:03;102863.34;;;20.47;58.41
58690;BME280;44470;53.206;-6.106;2023-05-29T02:01:29;102877.66;;;20.49;58.02
58690;BME280;44470;53.206;-6.106;2023-05-29T02:03:54;102872.28;;;20.49;58.14
58690;BME280;44470;53.206;-6.106;2023-05-29T02:06:20;102869.59;;;20.47;58.33
58690;BME280;44470;53.206;-6.106;2023-05-29T02:08:46;102868.69;;;20.48;58.16
58690;BME280;44470;53.206;-6.106;2023-05-29T02:11:12;102879.41;;;20.48;58.02
58690;BME280;44470;53.206;-6.106;2023-05-29T02:13:37;102878.53;;;20.48;58.42
58690;BME280;44470;53.206;-6.106;2023-05-29T02:16:03;102867.81;;;20.48;58.17
58690;BME280;44470;53.206;-6.106;2023-05-29T02:18:29;102874.06;;;20.47;58.30
58690;BME280;44470;53.206;-6.106;2023-05-29T02:20:54;102882.06;;;20.48;58.04
58690;BME280;44470;53.206;-6.106;2023-05-29T02:23:21;102874.94;;;20.47;58.16
58690;BME280;44470;53.206;-6.106;2023-05-29T02:25:46;102878.53;;;20.48;58.36
58690;BME280;44470;53.206;-6.106;2023-05-29T02:28:12;102870.50;;;20.48;58.33
58690;BME280;44470;53.206;-6.106;2023-05-29T02:30:38;102868.69;;;20.47;58.19
58690;BME280;44470;53.206;-6.106;2023-05-29T02:33:04;102870.47;;;20.46;58.18
58690;BME280;44470;53.206;-6.106;2023-05-29T02:35:32;102870.50;;;20.48;58.19
58690;BME280;44470;53.206;-6.106;2023-05-29T02:37:57;102869.59;;;20.47;58.46
58690;BME280;44470;53.206;-6.106;2023-05-29T02:40:23;102868.69;;;20.47;58.42
58690;BME280;44470;53.206;-6.106;2023-05-29T02:42:49;102866.91;;;20.47;58.13
58690;BME280;44470;53.206;-6.106;2023-05-29T02:45:14;102862.44;;;20.46;58.26
58690;BME280;44470;53.206;-6.106;2023-05-29T02:47:40;102862.44;;;20.46;58.48
58690;BME280;44470;53.206;-6.106;2023-05-29T02:50:05;102859.75;;;20.46;58.25
58690;BME280;44470;53.206;-6.106;2023-05-29T02:52:34;102862.44;;;20.46;58.39
58690;BME280;44470;53.206;-6.106;2023-05-29T02:54:59;102861.56;;;20.46;58.16
58690;BME280;44470;53.206;-6.106;2023-05-29T02:57:25;102861.56;;;20.46;58.47
58690;BME280;44470;53.206;-6.106;2023-05-29T02:59:50;102863.34;;;20.47;58.62
58690;BME280;44470;53.206;-6.106;2023-05-29T03:02:20;102866.00;;;20.45;58.23
58690;BME280;44470;53.206;-6.106;2023-05-29T03:04:45;102866.00;;;20.45;58.11
58690;BME280;44470;53.206;-6.106;2023-05-29T03:07:12;102856.19;;;20.44;58.35
58690;BME280;44470;53.206;-6.106;2023-05-29T03:09:38;102859.75;;;20.46;58.32
58690;BME280;44470;53.206;-6.106;2023-05-29T03:12:03;102860.66;;;20.45;58.50
58690;BME280;44470;53.206;-6.106;2023-05-29T03:14:29;102860.66;;;20.45;58.48
58690;BME280;44470;53.206;-6.106;2023-05-29T03:16:55;102865.13;;;20.45;58.23
58690;BME280;44470;53.206;-6.106;2023-05-29T03:19:21;102865.09;;;20.43;58.35
58690;BME280;44470;53.206;-6.106;2023-05-29T03:21:46;102865.13;;;20.45;58.43
58690;BME280;44470;53.206;-6.106;2023-05-29T03:24:12;102869.56;;;20.44;58.36
58690;BME280;44470;53.206;-6.106;2023-05-29T03:26:40;102869.56;;;20.44;58.33
58690;BME280;44470;53.206;-6.106;2023-05-29T03:29:06;102869.56;;;20.44;58.48
58690;BME280;44470;53.206;-6.106;2023-05-29T03:31:33;102862.44;;;20.45;58.53
58690;BME280;44470;53.206;-6.106;2023-05-29T03:33:59;102857.97;;;20.44;58.50
58690;BME280;44470;53.206;-6.106;2023-05-29T03:36:34;102864.19;;;20.44;58.31
58690;BME280;44470;53.206;-6.106;2023-05-29T03:39:05;102859.72;;;20.43;58.63
58690;BME280;44470;53.206;-6.106;2023-05-29T03:41:31;102857.06;;;20.43;58.27
58690;BME280;44470;53.206;-6.106;2023-05-29T03:43:57;102851.72;;;20.43;58.34
58690;BME280;44470;53.206;-6.106;2023-05-29T03:46:25;102866.88;;;20.44;58.29
58690;BME280;44470;53.206;-6.106;2023-05-29T03:48:50;102867.75;;;20.43;58.26
58690;BME280;44470;53.206;-6.106;2023-05-29T03:51:16;102869.56;;;20.44;58.65
58690;BME280;44470;53.206;-6.106;2023-05-29T03:53:41;102871.34;;;20.44;58.70
58690;BME280;44470;53.206;-6.106;2023-05-29T03:56:07;102874.91;;;20.43;58.69
58690;BME280;44470;53.206;-6.106;2023-05-29T03:58:33;102869.56;;;20.44;58.38
58690;BME280;44470;53.206;-6.106;2023-05-29T04:00:59;102864.19;;;20.44;58.56
58690;BME280;44470;53.206;-6.106;2023-05-29T04:03:27;102865.97;;;20.42;58.32
58690;BME280;44470;53.206;-6.106;2023-05-29T04:05:54;102867.75;;;20.43;58.85
58690;BME280;44470;53.206;-6.106;2023-05-29T04:08:20;102861.53;;;20.43;58.58
58690;BME280;44470;53.206;-6.106;2023-05-29T04:10:46;102868.63;;;20.42;58.49
58690;BME280;44470;53.206;-6.106;2023-05-29T04:13:11;102863.28;;;20.42;58.67
58690;BME280;44470;53.206;-6.106;2023-05-29T04:15:39;102877.56;;;20.43;58.71
58690;BME280;44470;53.206;-6.106;2023-05-29T04:18:04;102866.84;;;20.41;58.72
58690;BME280;44470;53.206;-6.106;2023-05-29T04:20:29;102876.66;;;20.42;58.59
58690;BME280;44470;53.206;-6.106;2023-05-29T04:22:56;102876.66;;;20.42;58.54
58690;BME280;44470;53.206;-6.106;2023-05-29T04:25:21;102874.88;;;20.41;58.57
58690;BME280;44470;53.206;-6.106;2023-05-29T04:27:47;102880.22;;;20.41;58.76
58690;BME280;44470;53.206;-6.106;2023-05-29T04:30:18;102884.69;;;20.42;58.75
58690;BME280;44470;53.206;-6.106;2023-05-29T04:32:46;102872.19;;;20.41;58.79
58690;BME280;44470;53.206;-6.106;2023-05-29T04:35:12;102877.56;;;20.43;58.59
58690;BME280;44470;53.206;-6.106;2023-05-29T04:37:45;102878.47;;;20.43;58.73
58690;BME280;44470;53.206;-6.106;2023-05-29T04:40:12;102871.31;;;20.42;58.54
58690;BME280;44470;53.206;-6.106;2023-05-29T04:42:39;102871.31;;;20.42;58.92
58690;BME280;44470;53.206;-6.106;2023-05-29T04:45:08;102882.91;;;20.43;58.57
58690;BME280;44470;53.206;-6.106;2023-05-29T04:47:37;102882.00;;;20.42;58.54
58690;BME280;44470;53.206;-6.106;2023-05-29T04:50:14;102883.81;;;20.42;58.45
58690;BME280;44470;53.206;-6.106;2023-05-29T04:52:42;102882.00;;;20.42;58.69
58690;BME280;44470;53.206;-6.106;2023-05-29T04:55:09;102888.28;;;20.44;58.73
58690;BME280;44470;53.206;-6.106;2023-05-29T04:57:37;102886.47;;;20.43;58.86
58690;BME280;44470;53.206;-6.106;2023-05-29T05:00:05;102893.63;;;20.44;58.91
58690;BME280;44470;53.206;-6.106;2023-05-29T05:02:34;102884.72;;;20.44;58.77
58690;BME280;44470;53.206;-6.106;2023-05-29T05:04:59;102885.59;;;20.43;58.76
58690;BME280;44470;53.206;-6.106;2023-05-29T05:07:25;102890.06;;;20.44;58.79
58690;BME280;44470;53.206;-6.106;2023-05-29T05:09:51;102896.28;;;20.44;58.70
58690;BME280;44470;53.206;-6.106;2023-05-29T05:12:21;102891.88;;;20.45;58.84
58690;BME280;44470;53.206;-6.106;2023-05-29T05:14:46;102892.75;;;20.45;58.46
58690;BME280;44470;53.206;-6.106;2023-05-29T05:17:12;102900.78;;;20.45;58.39
58690;BME280;44470;53.206;-6.106;2023-05-29T05:19:37;102890.06;;;20.45;58.56
58690;BME280;44470;53.206;-6.106;2023-05-29T05:22:03;102898.09;;;20.45;58.50
58690;BME280;44470;53.206;-6.106;2023-05-29T05:24:28;102899.88;;;20.46;58.54
58690;BME280;44470;53.206;-6.106;2023-05-29T05:26:53;102901.69;;;20.47;58.46
58690;BME280;44470;53.206;-6.106;2023-05-29T05:29:19;102901.69;;;20.47;58.50
58690;BME280;44470;53.206;-6.106;2023-05-29T05:31:46;102898.13;;;20.48;58.87
58690;BME280;44470;53.206;-6.106;2023-05-29T05:34:11;102911.50;;;20.48;58.83
58690;BME280;44470;53.206;-6.106;2023-05-29T05:36:38;102910.63;;;20.50;58.86
58690;BME280;44470;53.206;-6.106;2023-05-29T05:39:09;102910.63;;;20.50;58.67
58690;BME280;44470;53.206;-6.106;2023-05-29T05:41:35;102915.97;;;20.50;58.57
58690;BME280;44470;53.206;-6.106;2023-05-29T05:44:01;102910.63;;;20.50;58.95
58690;BME280;44470;53.206;-6.106;2023-05-29T05:46:49;102910.63;;;20.50;58.54
58690;BME280;44470;53.206;-6.106;2023-05-29T05:49:14;102911.53;;;20.50;58.74
58690;BME280;44470;53.206;-6.106;2023-05-29T05:51:40;102923.13;;;20.51;58.44
58690;BME280;44470;53.206;-6.106;2023-05-29T05:54:06;102918.69;;;20.51;58.94
58690;BME280;44470;53.206;-6.106;2023-05-29T05:56:31;102921.34;;;20.51;58.64
58690;BME280;44470;53.206;-6.106;2023-05-29T05:58:57;102917.78;;;20.51;58.92
58690;BME280;44470;53.206;-6.106;2023-05-29T06:01:22;102916.00;;;20.53;58.72
58690;BME280;44470;53.206;-6.106;2023-05-29T06:03:49;102910.66;;;20.53;58.94
58690;BME280;44470;53.206;-6.106;2023-05-29T06:06:14;102916.00;;;20.53;58.77
58690;BME280;44470;53.206;-6.106;2023-05-29T06:08:41;102911.56;;;20.53;59.06
58690;BME280;44470;53.206;-6.106;2023-05-29T06:11:08;102924.94;;;20.53;58.69
58690;BME280;44470;53.206;-6.106;2023-05-29T06:13:36;102929.41;;;20.54;59.09
58690;BME280;44470;53.206;-6.106;2023-05-29T06:16:09;102928.50;;;20.54;58.53
58690;BME280;44470;53.206;-6.106;2023-05-29T06:18:35;102922.28;;;20.55;58.92
58690;BME280;44470;53.206;-6.106;2023-05-29T06:21:00;102924.94;;;20.53;58.77
58690;BME280;44470;53.206;-6.106;2023-05-29T06:23:26;102930.31;;;20.55;58.81
58690;BME280;44470;53.206;-6.106;2023-05-29T06:25:52;102924.94;;;20.55;58.61
58690;BME280;44470;53.206;-6.106;2023-05-29T06:28:18;102928.50;;;20.54;58.79
58690;BME280;44470;53.206;-6.106;2023-05-29T06:30:44;102936.56;;;20.55;58.93
58690;BME280;44470;53.206;-6.106;2023-05-29T06:33:11;102941.00;;;20.55;59.03
58690;BME280;44470;53.206;-6.106;2023-05-29T06:35:38;102943.69;;;20.55;58.62
58690;BME280;44470;53.206;-6.106;2023-05-29T06:38:03;102948.16;;;20.56;59.18
58690;BME280;44470;53.206;-6.106;2023-05-29T06:40:29;102947.25;;;20.55;59.19
58690;BME280;44470;53.206;-6.106;2023-05-29T06:42:55;102945.47;;;20.56;59.06
58690;BME280;44470;53.206;-6.106;2023-05-29T06:45:34;102945.50;;;20.57;58.84
58690;BME280;44470;53.206;-6.106;2023-05-29T06:48:00;102949.94;;;20.57;59.05
58690;BME280;44470;53.206;-6.106;2023-05-29T06:50:25;102957.09;;;20.58;59.33
58690;BME280;44470;53.206;-6.106;2023-05-29T06:52:51;102961.56;;;20.59;59.08
58690;BME280;44470;53.206;-6.106;2023-05-29T06:55:16;102958.88;;;20.57;58.80
58690;BME280;44470;53.206;-6.106;2023-05-29T06:57:41;102964.25;;;20.59;59.11
58690;BME280;44470;53.206;-6.106;2023-05-29T07:00:07;102967.78;;;20.58;59.25
58690;BME280;44470;53.206;-6.106;2023-05-29T07:02:38;102973.19;;;20.59;59.08
58690;BME280;44470;53.206;-6.106;2023-05-29T07:05:05;102973.19;;;20.59;59.45
58690;BME280;44470;53.206;-6.106;2023-05-29T07:07:31;102965.13;;;20.58;59.31
58690;BME280;44470;53.206;-6.106;2023-05-29T07:09:57;102965.16;;;20.59;59.17
58690;BME280;44470;53.206;-6.106;2023-05-29T07:12:22;102978.53;;;20.61;59.23
58690;BME280;44470;53.206;-6.106;2023-05-29T07:14:51;102976.72;;;20.60;59.51
58690;BME280;44470;53.206;-6.106;2023-05-29T07:17:16;102972.31;;;20.60;59.09
58690;BME280;44470;53.206;-6.106;2023-05-29T07:19:42;102975.84;;;20.61;59.13
58690;BME280;44470;53.206;-6.106;2023-05-29T07:22:08;102973.19;;;20.61;58.86
58690;BME280;44470;53.206;-6.106;2023-05-29T07:24:33;102973.19;;;20.61;59.06
58690;BME280;44470;53.206;-6.106;2023-05-29T07:27:01;102983.00;;;20.60;59.04
58690;BME280;44470;53.206;-6.106;2023-05-29T07:29:27;102980.31;;;20.62;59.10
58690;BME280;44470;53.206;-6.106;2023-05-29T07:31:53;102980.31;;;20.62;59.05
58690;BME280;44470;53.206;-6.106;2023-05-29T07:34:20;102980.28;;;20.59;59.01
58690;BME280;44470;53.206;-6.106;2023-05-29T07:36:56;102985.69;;;20.62;58.91
58690;BME280;44470;53.206;-6.106;2023-05-29T07:39:22;102999.09;;;20.64;59.10
58690;BME280;44470;53.206;-6.106;2023-05-29T07:41:47;102992.81;;;20.63;58.71
58690;BME280;44470;53.206;-6.106;2023-05-29T07:44:13;102993.75;;;20.64;58.91
58690;BME280;44470;53.206;-6.106;2023-05-29T07:46:38;102999.97;;;20.64;58.93
58690;BME280;44470;53.206;-6.106;2023-05-29T07:49:22;102998.19;;;20.63;59.26
58690;BME280;44470;53.206;-6.106;2023-05-29T07:51:48;103000.88;;;20.65;59.02
58690;BME280;44470;53.206;-6.106;2023-05-29T07:54:14;102999.97;;;20.64;58.99
58690;BME280;44470;53.206;-6.106;2023-05-29T07:56:42;103005.31;;;20.64;58.96
58690;BME280;44470;53.206;-6.106;2023-05-29T07:59:08;102999.97;;;20.64;58.81
58690;BME280;44470;53.206;-6.106;2023-05-29T08:01:34;102982.91;;;20.54;59.22
58690;BME280;44470;53.206;-6.106;2023-05-29T08:04:00;102999.97;;;20.64;58.92
58690;BME280;44470;53.206;-6.106;2023-05-29T08:06:29;103007.13;;;20.65;59.00
58690;BME280;44470;53.206;-6.106;2023-05-29T08:08:58;103013.34;;;20.64;58.98
58690;BME280;44470;53.206;-6.106;2023-05-29T08:11:24;103005.31;;;20.64;59.08
58690;BME280;44470;53.206;-6.106;2023-05-29T08:13:50;103016.03;;;20.64;59.22
58690;BME280;44470;53.206;-6.106;2023-05-29T08:16:16;103016.06;;;20.66;59.53
58690;BME280;44470;53.206;-6.106;2023-05-29T08:18:42;103016.94;;;20.66;59.46
58690;BME280;44470;53.206;-6.106;2023-05-29T08:21:08;103019.63;;;20.66;60.18
58690;BME280;44470;53.206;-6.106;2023-05-29T08:23:34;103026.78;;;20.67;60.21
58690;BME280;44470;53.206;-6.106;2023-05-29T08:26:00;103025.03;;;20.69;60.26
58690;BME280;44470;53.206;-6.106;2023-05-29T08:28:25;103025.91;;;20.68;60.40
58690;BME280;44470;53.206;-6.106;2023-05-29T08:30:52;103029.47;;;20.69;60.56
58690;BME280;44470;53.206;-6.106;2023-05-29T08:33:17;103029.44;;;20.67;60.54
58690;BME280;44470;53.206;-6.106;2023-05-29T08:35:43;103028.59;;;20.68;60.94
58690;BME280;44470;53.206;-6.106;2023-05-29T08:38:08;103032.13;;;20.67;60.58
58690;BME280;44470;53.206;-6.106;2023-05-29T08:40:33;103040.16;;;20.66;60.42
58690;BME280;44470;53.206;-6.106;2023-05-29T08:43:08;103036.63;;;20.68;60.42
58690;BME280;44470;53.206;-6.106;2023-05-29T08:45:35;103040.16;;;20.67;60.19
58690;BME280;44470;53.206;-6.106;2023-05-29T08:48:05;103043.75;;;20.68;60.56
58690;BME280;44470;53.206;-6.106;2023-05-29T08:50:32;103048.19;;;20.67;60.34
58690;BME280;44470;53.206;-6.106;2023-05-29T08:52:58;103037.47;;;20.67;60.29
58690;BME280;44470;53.206;-6.106;2023-05-29T08:55:24;103040.16;;;20.67;60.04
58690;BME280;44470;53.206;-6.106;2023-05-29T08:57:49;103033.94;;;20.68;59.82
58690;BME280;44470;53.206;-6.106;2023-05-29T09:00:15;103045.50;;;20.67;60.00
58690;BME280;44470;53.206;-6.106;2023-05-29T09:02:43;103047.28;;;20.67;59.81
58690;BME280;44470;53.206;-6.106;2023-05-29T09:05:09;103054.44;;;20.68;60.03
58690;BME280;44470;53.206;-6.106;2023-05-29T09:07:38;103049.09;;;20.68;59.62
58690;BME280;44470;53.206;-6.106;2023-05-29T09:10:10;103024.81;;;20.54;59.78
58690;BME280;44470;53.206;-6.106;2023-05-29T09:12:36;103053.53;;;20.67;59.73
58690;BME280;44470;53.206;-6.106;2023-05-29T09:15:02;103059.78;;;20.68;59.45
58690;BME280;44470;53.206;-6.106;2023-05-29T09:17:31;103050.00;;;20.68;59.40
58690;BME280;44470;53.206;-6.106;2023-05-29T09:19:58;103050.00;;;20.68;59.73
58690;BME280;44470;53.206;-6.106;2023-05-29T09:22:23;103051.75;;;20.68;59.54
58690;BME280;44470;53.206;-6.106;2023-05-29T09:24:48;103058.03;;;20.68;59.52
58690;BME280;44470;53.206;-6.106;2023-05-29T09:27:16;103058.91;;;20.69;59.22
58690;BME280;44470;53.206;-6.106;2023-05-29T09:29:42;103061.59;;;20.69;59.92
58690;BME280;44470;53.206;-6.106;2023-05-29T09:32:08;103071.41;;;20.68;59.73
58690;BME280;44470;53.206;-6.106;2023-05-29T09:34:34;103066.91;;;20.67;59.60
58690;BME280;44470;53.206;-6.106;2023-05-29T09:37:03;103058.88;;;20.67;59.75
58690;BME280;44470;53.206;-6.106;2023-05-29T09:42:07;103064.22;;;20.67;59.48
58690;BME280;44470;53.206;-6.106;2023-05-29T09:44:32;103071.41;;;20.68;59.39
58690;BME280;44470;53.206;-6.106;2023-05-29T09:46:58;103081.25;;;20.69;59.39
58690;BME280;44470;53.206;-6.106;2023-05-29T09:49:25;103066.06;;;20.68;59.44
58690;BME280;44470;53.206;-6.106;2023-05-29T09:51:53;103073.22;;;20.69;59.38
58690;BME280;44470;53.206;-6.106;2023-05-29T09:54:19;103072.25;;;20.67;59.58
58690;BME280;44470;53.206;-6.106;2023-05-29T09:56:45;103069.63;;;20.69;59.72
58690;BME280;44470;53.206;-6.106;2023-05-29T09:59:11;103064.22;;;20.67;59.56
58690;BME280;44470;53.206;-6.106;2023-05-29T10:01:38;103060.72;;;20.68;59.68
58690;BME280;44470;53.206;-6.106;2023-05-29T10:04:04;103064.22;;;20.67;59.29
58690;BME280;44470;53.206;-6.106;2023-05-29T10:06:30;103065.16;;;20.68;59.16
58690;BME280;44470;53.206;-6.106;2023-05-29T10:08:55;103060.72;;;20.68;59.44
58690;BME280;44470;53.206;-6.106;2023-05-29T10:11:22;103055.31;;;20.67;59.25
58690;BME280;44470;53.206;-6.106;2023-05-29T10:13:51;103058.03;;;20.68;59.11
58690;BME280;44470;53.206;-6.106;2023-05-29T10:16:17;103058.03;;;20.68;59.53
58690;BME280;44470;53.206;-6.106;2023-05-29T10:18:47;103060.72;;;20.68;59.04
58690;BME280;44470;53.206;-6.106;2023-05-29T10:21:14;103058.88;;;20.67;59.55
58690;BME280;44470;53.206;-6.106;2023-05-29T10:23:43;103055.34;;;20.68;59.28
58690;BME280;44470;53.206;-6.106;2023-05-29T10:26:12;103052.66;;;20.67;59.56
58690;BME280;44470;53.206;-6.106;2023-05-29T10:28:39;103058.03;;;20.68;59.19
58690;BME280;44470;53.206;-6.106;2023-05-29T10:31:14;103058.88;;;20.67;59.23
58690;BME280;44470;53.206;-6.106;2023-05-29T10:36:10;103058.88;;;20.67;59.40
58690;BME280;44470;53.206;-6.106;2023-05-29T10:38:36;103061.56;;;20.67;59.30
58690;BME280;44470;53.206;-6.106;2023-05-29T10:43:47;103065.16;;;20.68;59.45
58690;BME280;44470;53.206;-6.106;2023-05-29T10:46:12;103064.22;;;20.67;59.23
58690;BME280;44470;53.206;-6.106;2023-05-29T10:48:38;103066.06;;;20.68;59.16
58690;BME280;44470;53.206;-6.106;2023-05-29T10:51:05;103064.22;;;20.67;59.42
58690;BME280;44470;53.206;-6.106;2023-05-29T10:53:32;103063.38;;;20.68;59.38
58690;BME280;44470;53.206;-6.106;2023-05-29T10:55:58;103065.16;;;20.68;59.42
58690;BME280;44470;53.206;-6.106;2023-05-29T10:58:25;103067.81;;;20.68;59.33
58690;BME280;44470;53.206;-6.106;2023-05-29T11:00:54;103059.78;;;20.68;59.03
58690;BME280;44470;53.206;-6.106;2023-05-29T11:03:21;103053.53;;;20.67;59.52
58690;BME280;44470;53.206;-6.106;2023-05-29T11:06:16;103057.13;;;20.68;59.51
58690;BME280;44470;53.206;-6.106;2023-05-29T11:11:07;103055.25;;;20.62;59.31
58690;BME280;44470;53.206;-6.106;2023-05-29T11:13:36;103066.94;;;20.69;59.13
58690;BME280;44470;53.206;-6.106;2023-05-29T11:16:12;103058.88;;;20.67;59.17
58690;BME280;44470;53.206;-6.106;2023-05-29T11:18:39;103065.16;;;20.68;59.25
58690;BME280;44470;53.206;-6.106;2023-05-29T11:21:05;103069.59;;;20.67;59.46
58690;BME280;44470;53.206;-6.106;2023-05-29T11:23:36;103069.59;;;20.67;59.39
58690;BME280;44470;53.206;-6.106;2023-05-29T11:26:05;103076.75;;;20.68;59.55
58690;BME280;44470;53.206;-6.106;2023-05-29T11:28:30;103077.66;;;20.69;59.15
58690;BME280;44470;53.206;-6.106;2023-05-29T11:30:57;103074.09;;;20.68;59.45
58690;BME280;44470;53.206;-6.106;2023-05-29T11:33:26;103079.44;;;20.68;59.55
58690;BME280;44470;53.206;-6.106;2023-05-29T11:35:55;103082.13;;;20.68;59.61
58690;BME280;44470;53.206;-6.106;2023-05-29T11:38:20;103081.19;;;20.68;59.53
58690;BME280;44470;53.206;-6.106;2023-05-29T11:40:46;103085.63;;;20.67;59.26
58690;BME280;44470;53.206;-6.106;2023-05-29T11:43:12;103082.13;;;20.68;59.45
58690;BME280;44470;53.206;-6.106;2023-05-29T11:45:37;103090.16;;;20.68;59.31
58690;BME280;44470;53.206;-6.106;2023-05-29T11:48:03;103094.53;;;20.66;59.43
58690;BME280;44470;53.206;-6.106;2023-05-29T11:50:31;103093.66;;;20.67;59.17
58690;BME280;44470;53.206;-6.106;2023-05-29T11:52:58;103104.38;;;20.67;59.10
58690;BME280;44470;53.206;-6.106;2023-05-29T11:55:24;103102.59;;;20.68;59.35
58690;BME280;44470;53.206;-6.106;2023-05-29T11:57:56;103095.50;;;20.68;59.47
58690;BME280;44470;53.206;-6.106;2023-05-29T12:00:22;103093.66;;;20.67;59.61
58690;BME280;44470;53.206;-6.106;2023-05-29T12:02:47;103101.69;;;20.67;59.54
58690;BME280;44470;53.206;-6.106;2023-05-29T12:05:13;103103.53;;;20.68;59.23
58690;BME280;44470;53.206;-6.106;2023-05-29T12:07:46;103091.88;;;20.66;59.32
58690;BME280;44470;53.206;-6.106;2023-05-29T12:10:13;103105.28;;;20.68;59.40
58690;BME280;44470;53.206;-6.106;2023-05-29T12:12:39;103102.59;;;20.68;59.76
58690;BME280;44470;53.206;-6.106;2023-05-29T12:15:05;103094.56;;;20.68;59.58
58690;BME280;44470;53.206;-6.106;2023-05-29T12:17:32;103094.56;;;20.68;59.51
58690;BME280;44470;53.206;-6.106;2023-05-29T12:19:58;103091.91;;;20.68;59.82
58690;BME280;44470;53.206;-6.106;2023-05-29T12:22:36;103099.06;;;20.69;59.60
58690;BME280;44470;53.206;-6.106;2023-05-29T12:25:11;103093.66;;;20.67;59.32
58690;BME280;44470;53.206;-6.106;2023-05-29T12:27:37;103098.16;;;20.68;59.61
58690;BME280;44470;53.206;-6.106;2023-05-29T12:30:08;103092.81;;;20.68;59.73
58690;BME280;44470;53.206;-6.106;2023-05-29T12:32:44;103091.91;;;20.68;59.34
58690;BME280;44470;53.206;-6.106;2023-05-29T12:35:30;103091.03;;;20.69;59.43
58690;BME280;44470;53.206;-6.106;2023-05-29T12:37:55;103099.97;;;20.69;59.76
58690;BME280;44470;53.206;-6.106;2023-05-29T12:40:25;103098.16;;;20.68;59.89
58690;BME280;44470;53.206;-6.106;2023-05-29T12:42:54;103091.94;;;20.69;59.86
58690;BME280;44470;53.206;-6.106;2023-05-29T12:45:21;103090.16;;;20.68;59.92
58690;BME280;44470;53.206;-6.106;2023-05-29T12:47:51;103082.13;;;20.68;59.65
58690;BME280;44470;53.206;-6.106;2023-05-29T12:50:21;103088.34;;;20.69;59.87
58690;BME280;44470;53.206;-6.106;2023-05-29T12:53:03;103090.16;;;20.70;59.72
58690;BME280;44470;53.206;-6.106;2023-05-29T12:55:30;103085.59;;;20.64;59.93
58690;BME280;44470;53.206;-6.106;2023-05-29T12:57:55;103085.72;;;20.70;59.91